Barcelona, Španija

12:53 PM CET on december 19, 2014 (GMT +0100)
Viladecans | Change Station
CLOSE
Current Station
Osebne vremenske postaje
Location: Viladecans, CATALUñA, CATALONIA
Višina: 100 ft
Nearby Weather Stations

Viš 100 ft 41.32 °N, 2.01 °E | Updated 33 seconds ago

Clear
Jasno
62.1 °F
Feels Like 62.1 °F
N
0.0
Veter Spremenljivo Veter od Vzhod
Gusts 4.0 mph

Danes
High -- | Low -- °F
--% Chance of Precip.
Yesterday
High -- | Low -- °F
Precip. -- v
8:12 AM 5:24 PM
Pojemajoči krajec, 8% visible
Zračni tlak 30.33 v
Vidljivost -9999.0 milje
Oblaki
Rosišče 50 °F
Vlažnost 64%
Padavine 0.00 v
Snow Depth Not available.
UV Not available.
Pollen Not available.
Air Quality Not available.
Flu Activity Not available.
METAR LEBL 191130Z 34012KT 310V020 CAVOK 15/09 Q1027 NOSIG

More Conditions Fewer Conditions

Zračni tlak 30.33 v
Vidljivost -9999.0 milje
Oblaki
Rosišče 50 °F
Vlažnost 64%
Padavine 0.00 v
Snow Depth Not available.
UV Not available.
Pollen Not available.
Air Quality Not available.
Flu Activity Not available.
METAR LEBL 191130Z 34012KT 310V020 CAVOK 15/09 Q1027 NOSIG

More Conditions Fewer Conditions

10-Day Weather Forecast

Almanac

Astronomija

Dec. 19, 2014 Rise Set
Actual Time
Civil Twilight
Nautical Twilight
Astronomical Twilight
Moon
Length Of Visible Light
Dolžina dneva
Tomorrow will be .
, % of the Moon is Illuminated

Današnji ekstremi

Country Highs Country Lows

Community

WunderPhotos

Upload Photos

1,778,966 photos uploaded!

WunderBlogs® & News

Nearby

Air Quality

  Air Quality AQ Index Pollutant
Not available.

Snow Depth

Station Depth Višina

Earthquake Activity

City Distance Mag. Time & Date
Minimum magnitude displayed is 2.5.

Coastal Water Temperatures

Mesto Temperatura

Nearby Weather Stations